createdAt,value
2023-04-24T00:01:52.317Z,78.63
2023-04-24T00:04:20.632Z,78.90
2023-04-24T00:06:50.702Z,79.28
2023-04-24T00:09:18.812Z,79.24
2023-04-24T00:11:47.063Z,79.77
2023-04-24T00:14:15.229Z,80.19
2023-04-24T00:16:43.452Z,80.51
2023-04-24T00:19:14.023Z,81.07
2023-04-24T00:21:42.730Z,81.08
2023-04-24T00:24:11.218Z,81.87
2023-04-24T00:26:39.260Z,81.80
2023-04-24T00:29:07.283Z,82.12
2023-04-24T00:31:36.023Z,83.01
2023-04-24T00:34:04.534Z,82.94
2023-04-24T00:36:33.935Z,82.92
2023-04-24T00:39:01.892Z,83.27
2023-04-24T00:41:30.073Z,82.82
2023-04-24T00:43:58.163Z,83.31
2023-04-24T00:46:26.488Z,83.81
2023-04-24T00:48:55.058Z,83.21
2023-04-24T00:51:23.039Z,83.22
2023-04-24T00:53:53.171Z,82.82
2023-04-24T00:56:21.441Z,83.52
2023-04-24T00:58:49.843Z,82.88
2023-04-24T01:01:18.217Z,82.06
2023-04-24T01:03:46.782Z,82.52
2023-04-24T01:06:15.912Z,82.68
2023-04-24T01:08:44.603Z,82.63
2023-04-24T01:11:14.155Z,82.48
2023-04-24T01:13:42.391Z,82.99
2023-04-24T01:16:10.574Z,83.79
2023-04-24T01:18:39.394Z,84.31
2023-04-24T01:21:10.247Z,84.01
2023-04-24T01:23:39.759Z,84.65
2023-04-24T01:26:08.353Z,85.53
2023-04-24T01:28:36.786Z,86.56
2023-04-24T01:31:05.407Z,87.22
2023-04-24T01:33:34.622Z,88.41
2023-04-24T01:36:03.175Z,89.04
2023-04-24T01:38:31.425Z,89.03
2023-04-24T01:41:00.957Z,89.57
2023-04-24T01:43:29.034Z,89.91
2023-04-24T01:45:57.266Z,89.98
2023-04-24T01:48:25.408Z,90.02
2023-04-24T01:50:53.614Z,90.41
2023-04-24T01:53:21.894Z,92.27
2023-04-24T01:55:49.958Z,92.77
2023-04-24T01:58:19.495Z,92.30
2023-04-24T02:00:47.687Z,91.50
2023-04-24T02:03:16.113Z,91.77
2023-04-24T02:05:46.306Z,92.31
2023-04-24T02:08:14.295Z,91.97
2023-04-24T02:10:42.442Z,93.41
2023-04-24T02:13:10.585Z,92.87
2023-04-24T02:15:39.976Z,92.36
2023-04-24T02:18:08.451Z,93.12
2023-04-24T02:20:36.685Z,93.22
2023-04-24T02:23:04.771Z,93.12
2023-04-24T02:25:32.989Z,93.56
2023-04-24T02:28:00.957Z,93.69
2023-04-24T02:30:28.987Z,94.07
2023-04-24T02:32:58.609Z,95.40
2023-04-24T02:35:26.955Z,96.23
2023-04-24T02:37:55.216Z,97.30
2023-04-24T02:40:23.400Z,97.22
2023-04-24T02:42:51.683Z,96.50
2023-04-24T02:45:19.948Z,95.49
2023-04-24T02:47:48.411Z,95.56
2023-04-24T02:50:17.959Z,95.56
2023-04-24T02:52:46.117Z,96.22
2023-04-24T02:55:14.400Z,95.30
2023-04-24T02:57:42.540Z,96.03
2023-04-24T03:00:12.557Z,97.60
2023-04-24T03:02:40.796Z,97.63
2023-04-24T03:05:10.147Z,98.73
2023-04-24T03:07:39.811Z,98.64
2023-04-24T03:10:09.528Z,100.00
2023-04-24T03:12:39.229Z,99.81
2023-04-24T03:15:08.622Z,100.00
2023-04-24T03:17:38.181Z,100.00
2023-04-24T03:20:08.066Z,100.00
2023-04-24T03:22:36.589Z,100.00
2023-04-24T03:25:07.194Z,100.00
2023-04-24T03:27:35.248Z,100.00
2023-04-24T03:30:04.072Z,98.83
2023-04-24T03:32:33.403Z,98.11
2023-04-24T03:35:01.652Z,97.35
2023-04-24T03:37:29.762Z,96.98
2023-04-24T03:39:58.001Z,96.39
2023-04-24T03:42:27.722Z,94.97
2023-04-24T03:44:56.476Z,95.28
2023-04-24T03:47:24.598Z,94.30
2023-04-24T03:49:53.381Z,93.69
2023-04-24T03:52:21.507Z,92.40
2023-04-24T03:54:49.637Z,91.91
2023-04-24T03:57:17.757Z,91.76
2023-04-24T03:59:47.399Z,91.44
2023-04-24T04:02:15.488Z,91.06
2023-04-24T04:04:43.873Z,90.25
2023-04-24T04:07:12.420Z,90.53
2023-04-24T04:09:40.718Z,90.28
2023-04-24T04:12:08.906Z,89.72
2023-04-24T04:14:37.174Z,89.33
2023-04-24T04:17:06.620Z,87.92
2023-04-24T04:19:34.721Z,86.18
2023-04-24T04:22:02.814Z,84.64
2023-04-24T04:24:31.059Z,82.72
2023-04-24T04:26:59.326Z,83.30
2023-04-24T04:29:27.499Z,85.10
2023-04-24T04:31:56.414Z,85.16
2023-04-24T04:34:25.954Z,86.32
2023-04-24T04:36:54.156Z,86.38
2023-04-24T04:39:22.311Z,84.63
2023-04-24T04:41:51.575Z,83.83
2023-04-24T04:44:19.568Z,84.69
2023-04-24T04:46:48.572Z,85.56
2023-04-24T04:49:17.887Z,85.70
2023-04-24T04:51:48.104Z,86.67
2023-04-24T04:54:16.996Z,87.45
2023-04-24T04:56:45.727Z,87.79
2023-04-24T04:59:14.020Z,88.79
2023-04-24T05:01:42.502Z,89.05
2023-04-24T05:04:10.857Z,88.87
2023-04-24T05:06:39.545Z,88.84
2023-04-24T05:09:08.926Z,88.83
2023-04-24T05:11:36.980Z,87.15
2023-04-24T05:14:05.338Z,86.64
2023-04-24T05:16:33.417Z,85.39
2023-04-24T05:19:01.603Z,84.67
2023-04-24T05:21:30.310Z,84.17
2023-04-24T05:23:58.323Z,84.66
2023-04-24T05:26:28.236Z,84.18
2023-04-24T05:28:56.655Z,83.63
2023-04-24T05:31:24.789Z,83.09
2023-04-24T05:33:53.025Z,82.85
2023-04-24T05:36:21.284Z,80.98
2023-04-24T05:38:50.784Z,80.10
2023-04-24T05:41:18.783Z,79.83
2023-04-24T05:43:48.507Z,80.02
2023-04-24T05:46:16.919Z,79.83
2023-04-24T05:48:44.947Z,76.99
2023-04-24T05:51:13.087Z,75.54
2023-04-24T05:53:41.119Z,74.78
2023-04-24T05:56:09.328Z,75.71
2023-04-24T05:58:38.519Z,76.06
2023-04-24T06:01:07.981Z,75.91
2023-04-24T06:03:36.287Z,76.07
2023-04-24T06:06:04.561Z,75.52
2023-04-24T06:08:32.767Z,72.61
2023-04-24T06:11:02.765Z,72.04
2023-04-24T06:13:32.438Z,71.01
2023-04-24T06:16:00.665Z,67.49
2023-04-24T06:18:30.262Z,66.49
2023-04-24T06:20:58.872Z,67.63
2023-04-24T06:23:27.133Z,64.75
2023-04-24T06:25:55.442Z,63.52
2023-04-24T06:28:23.442Z,61.36
2023-04-24T06:30:51.545Z,61.49
2023-04-24T06:33:21.271Z,60.31
2023-04-24T06:35:52.438Z,61.39
2023-04-24T06:38:20.896Z,64.23
2023-04-24T06:40:49.139Z,65.20
2023-04-24T06:43:17.184Z,63.44
2023-04-24T06:45:46.433Z,63.38
2023-04-24T06:48:14.626Z,62.55
2023-04-24T06:50:42.664Z,60.11
2023-04-24T06:53:13.842Z,59.38
2023-04-24T06:55:42.290Z,59.47
2023-04-24T06:58:10.437Z,61.12
2023-04-24T07:00:38.569Z,59.08
2023-04-24T07:03:07.403Z,58.26
2023-04-24T07:05:36.449Z,59.18
2023-04-24T07:08:05.669Z,60.73
2023-04-24T07:10:36.505Z,60.26
2023-04-24T07:13:04.983Z,61.64
2023-04-24T07:15:33.481Z,60.92
2023-04-24T07:18:04.030Z,61.22
2023-04-24T07:20:34.391Z,60.15
2023-04-24T07:23:03.089Z,57.63
2023-04-24T07:25:31.560Z,55.32
2023-04-24T07:28:01.183Z,57.10
2023-04-24T07:30:29.960Z,58.28
2023-04-24T07:32:58.006Z,58.77
2023-04-24T07:35:26.675Z,55.98
2023-04-24T07:37:55.750Z,55.37
2023-04-24T07:40:24.522Z,52.81
2023-04-24T07:42:52.986Z,52.11
2023-04-24T07:45:24.205Z,50.35
2023-04-24T07:47:53.238Z,50.30
2023-04-24T07:50:21.693Z,49.63
2023-04-24T07:52:49.795Z,50.07
2023-04-24T07:55:18.092Z,49.88
2023-04-24T07:57:46.195Z,49.47
2023-04-24T08:00:15.210Z,48.54
2023-04-24T08:02:45.972Z,47.01
2023-04-24T08:05:14.077Z,47.54
2023-04-24T08:07:43.737Z,47.45
2023-04-24T08:10:12.827Z,45.90
2023-04-24T08:12:41.432Z,44.77
2023-04-24T08:15:10.636Z,45.36
2023-04-24T08:17:38.892Z,45.76
2023-04-24T08:20:14.556Z,45.79
2023-04-24T08:22:43.182Z,44.86
2023-04-24T08:25:12.493Z,44.17
2023-04-24T08:27:41.021Z,44.18
2023-04-24T08:30:10.540Z,44.65
2023-04-24T08:32:39.073Z,44.50
2023-04-24T08:35:10.794Z,44.34
2023-04-24T08:37:39.129Z,44.80
2023-04-24T08:40:14.183Z,42.12
2023-04-24T08:42:48.056Z,41.59
2023-04-24T08:45:17.619Z,42.41
2023-04-24T08:47:46.513Z,43.70
2023-04-24T08:50:16.461Z,41.94
2023-04-24T08:52:44.791Z,42.85
2023-04-24T08:55:13.181Z,41.44
2023-04-24T08:57:41.814Z,40.58
2023-04-24T09:00:12.218Z,39.86
2023-04-24T09:02:44.347Z,39.90
2023-04-24T09:05:13.076Z,41.09
2023-04-24T09:07:47.256Z,42.51
2023-04-24T09:10:15.453Z,43.36
2023-04-24T09:12:44.213Z,41.53
2023-04-24T09:15:13.537Z,39.78
2023-04-24T09:17:41.628Z,39.93
2023-04-24T09:20:12.564Z,41.43
2023-04-24T09:22:42.357Z,40.48
2023-04-24T09:25:13.757Z,41.25
2023-04-24T09:27:45.137Z,42.26
2023-04-24T09:30:14.347Z,42.04
2023-04-24T09:32:43.035Z,41.04
2023-04-24T09:35:13.483Z,39.84
2023-04-24T09:37:44.305Z,39.88
2023-04-24T09:40:17.808Z,39.10
2023-04-24T09:42:49.894Z,39.47
2023-04-24T09:45:18.610Z,39.25
2023-04-24T09:47:46.783Z,40.67
2023-04-24T09:50:17.203Z,40.80
2023-04-24T09:52:58.840Z,39.74
2023-04-24T09:55:28.790Z,40.66
2023-04-24T09:57:58.970Z,38.86
2023-04-24T10:00:28.540Z,38.32
2023-04-24T10:03:01.380Z,37.05
2023-04-24T10:05:32.398Z,36.21
2023-04-24T10:08:04.467Z,36.14
2023-04-24T10:10:33.277Z,37.39
2023-04-24T10:13:02.073Z,36.82
2023-04-24T10:15:30.378Z,37.04
2023-04-24T10:18:00.637Z,35.90
2023-04-24T10:20:31.694Z,36.09
2023-04-24T10:23:01.208Z,36.71
2023-04-24T10:25:33.084Z,38.40
2023-04-24T10:28:02.203Z,37.66
2023-04-24T10:30:32.117Z,37.45
2023-04-24T10:33:01.916Z,36.02
2023-04-24T10:35:33.394Z,35.58
2023-04-24T10:38:07.645Z,36.47
2023-04-24T10:40:38.505Z,34.72
2023-04-24T10:43:09.109Z,34.28
2023-04-24T10:45:37.392Z,34.76
2023-04-24T10:48:11.819Z,34.73
2023-04-24T10:50:48.092Z,34.61
2023-04-24T10:53:19.135Z,36.92
2023-04-24T10:55:50.444Z,38.40
2023-04-24T10:58:19.409Z,38.42
2023-04-24T11:00:59.414Z,38.68
2023-04-24T11:03:30.155Z,39.30
2023-04-24T11:06:01.263Z,40.17
2023-04-24T11:08:31.693Z,40.16
2023-04-24T11:11:04.059Z,41.24
2023-04-24T11:14:08.978Z,42.55
2023-04-24T11:16:41.211Z,43.51
2023-04-24T11:19:10.927Z,44.28
2023-04-24T11:21:44.099Z,44.07
2023-04-24T11:24:26.432Z,43.81
2023-04-24T11:26:57.783Z,44.11
2023-04-24T11:29:41.206Z,45.88
2023-04-24T11:32:27.930Z,51.16
2023-04-24T11:34:57.758Z,58.89
2023-04-24T11:37:28.410Z,65.57
2023-04-24T11:39:58.311Z,78.13
2023-04-24T11:42:27.959Z,78.26
2023-04-24T11:44:58.132Z,84.85
2023-04-24T11:47:34.962Z,91.75
2023-04-24T11:50:03.618Z,90.49
2023-04-24T11:52:32.691Z,85.22
2023-04-24T11:55:01.837Z,75.16
2023-04-24T11:57:34.839Z,69.44
2023-04-24T12:00:04.590Z,65.18
2023-04-24T12:02:33.894Z,55.72
2023-04-24T12:05:02.131Z,52.94
2023-04-24T12:07:30.512Z,52.58
2023-04-24T12:10:00.899Z,50.73
2023-04-24T12:12:31.512Z,50.70
2023-04-24T12:15:01.178Z,49.96
2023-04-24T12:17:31.376Z,50.08
2023-04-24T12:20:02.337Z,50.03
2023-04-24T12:22:30.763Z,50.48
2023-04-24T12:25:03.324Z,49.83
2023-04-24T12:27:35.162Z,49.74
2023-04-24T12:30:05.558Z,51.12
2023-04-24T12:32:34.342Z,50.65
2023-04-24T12:35:07.173Z,50.86
2023-04-24T12:37:37.564Z,50.39
2023-04-24T12:40:08.792Z,50.56
2023-04-24T12:42:44.834Z,50.49
2023-04-24T12:45:14.187Z,49.97
2023-04-24T12:47:43.099Z,50.01
2023-04-24T12:50:12.376Z,50.00
2023-04-24T12:52:41.119Z,49.58
2023-04-24T12:55:10.522Z,49.59
2023-04-24T12:57:41.715Z,48.98
2023-04-24T13:00:11.083Z,48.75
2023-04-24T13:02:39.494Z,49.30
2023-04-24T13:05:08.365Z,50.07
2023-04-24T13:07:36.348Z,50.72
2023-04-24T13:10:04.505Z,49.79
2023-04-24T13:12:32.524Z,50.68
2023-04-24T13:15:01.861Z,50.30
2023-04-24T13:17:30.078Z,50.25
2023-04-24T13:19:58.133Z,50.72
2023-04-24T13:22:26.118Z,51.15
2023-04-24T13:24:54.100Z,51.57
2023-04-24T13:27:22.168Z,51.01
2023-04-24T13:29:50.153Z,50.49
2023-04-24T13:32:21.316Z,50.08
2023-04-24T13:34:49.455Z,48.42
2023-04-24T13:37:17.477Z,50.17
2023-04-24T13:39:45.542Z,49.48
2023-04-24T13:42:13.807Z,49.39
2023-04-24T13:44:42.293Z,49.85
2023-04-24T13:47:10.347Z,49.69
2023-04-24T13:49:39.835Z,50.90
2023-04-24T13:52:08.487Z,51.54
2023-04-24T13:54:36.701Z,50.50
2023-04-24T13:57:05.658Z,50.33
2023-04-24T13:59:33.633Z,50.38
2023-04-24T14:02:01.764Z,49.72
2023-04-24T14:04:30.163Z,50.49
2023-04-24T14:06:59.776Z,50.86
2023-04-24T14:09:27.904Z,51.61
2023-04-24T14:11:56.119Z,52.74
2023-04-24T14:14:26.375Z,53.17
2023-04-24T14:16:54.577Z,53.27
2023-04-24T14:19:22.556Z,54.47
2023-04-24T14:21:50.725Z,55.62
2023-04-24T14:24:20.208Z,55.28
2023-04-24T14:26:48.187Z,56.39
2023-04-24T14:29:16.303Z,57.21
2023-04-24T14:31:44.719Z,57.19
2023-04-24T14:34:12.753Z,59.14
2023-04-24T14:36:40.789Z,61.73
2023-04-24T14:39:08.941Z,63.64
2023-04-24T14:41:42.608Z,63.47
2023-04-24T14:44:10.730Z,60.78
2023-04-24T14:46:39.234Z,60.49
2023-04-24T14:49:10.658Z,59.92
2023-04-24T14:51:38.936Z,59.62
2023-04-24T14:54:07.057Z,60.28
2023-04-24T14:56:35.115Z,59.59
2023-04-24T14:59:05.199Z,58.81
2023-04-24T15:01:33.403Z,57.42
2023-04-24T15:04:01.465Z,58.11
2023-04-24T15:06:32.034Z,59.02
2023-04-24T15:08:59.960Z,59.33
2023-04-24T15:11:28.634Z,59.79
2023-04-24T15:13:56.779Z,60.76
2023-04-24T15:16:26.660Z,61.86
2023-04-24T15:18:54.658Z,64.10
2023-04-24T15:21:22.927Z,65.72
2023-04-24T15:23:50.918Z,66.33
2023-04-24T15:26:19.616Z,67.42
2023-04-24T15:28:48.269Z,67.06
2023-04-24T15:31:16.449Z,67.68
2023-04-24T15:33:46.188Z,68.33
2023-04-24T15:36:14.629Z,69.68
2023-04-24T15:38:45.289Z,70.38
2023-04-24T15:41:13.921Z,71.81
2023-04-24T15:43:42.322Z,72.45
2023-04-24T15:46:10.461Z,71.88
2023-04-24T15:48:40.105Z,72.43
2023-04-24T15:51:10.167Z,73.20
2023-04-24T15:53:38.161Z,75.29
2023-04-24T15:56:06.776Z,77.72
2023-04-24T15:58:34.991Z,81.33
2023-04-24T16:01:03.512Z,82.90
2023-04-24T16:03:32.162Z,85.56
2023-04-24T16:06:00.370Z,86.66
2023-04-24T16:08:29.736Z,88.13
2023-04-24T16:10:57.804Z,91.19
2023-04-24T16:13:25.767Z,93.12
2023-04-24T16:15:54.241Z,94.07
2023-04-24T16:18:23.299Z,96.91
2023-04-24T16:20:52.184Z,100.00
2023-04-24T16:23:20.347Z,100.00
2023-04-24T16:25:50.050Z,100.00
2023-04-24T16:28:18.054Z,100.00
2023-04-24T16:30:47.269Z,100.00
2023-04-24T16:33:16.015Z,100.00
2023-04-24T16:35:47.239Z,100.00
2023-04-24T16:38:15.443Z,100.00
2023-04-24T16:40:43.525Z,100.00
2023-04-24T16:43:13.131Z,100.00
2023-04-24T16:45:42.104Z,100.00
2023-04-24T16:48:11.584Z,100.00
2023-04-24T16:50:39.628Z,100.00
2023-04-24T16:53:10.430Z,100.00
2023-04-24T16:55:38.592Z,100.00
2023-04-24T16:58:06.666Z,100.00
2023-04-24T17:00:38.010Z,100.00
2023-04-24T17:03:06.255Z,100.00
2023-04-24T17:05:34.623Z,100.00
2023-04-24T17:08:02.764Z,100.00
2023-04-24T17:10:31.248Z,100.00
2023-04-24T17:13:00.170Z,100.00
2023-04-24T17:15:28.293Z,100.00
2023-04-24T17:17:58.143Z,100.00
2023-04-24T17:20:28.951Z,100.00
2023-04-24T17:22:58.289Z,100.00
2023-04-24T17:25:26.598Z,100.00
2023-04-24T17:27:54.623Z,100.00
2023-04-24T17:30:22.825Z,100.00
2023-04-24T17:32:52.504Z,100.00
2023-04-24T17:35:22.807Z,100.00
2023-04-24T17:37:51.073Z,100.00
2023-04-24T17:40:19.314Z,100.00
2023-04-24T17:42:47.272Z,100.00
2023-04-24T17:45:15.256Z,100.00
2023-04-24T17:47:43.390Z,100.00
2023-04-24T17:50:12.503Z,100.00
2023-04-24T17:52:42.145Z,100.00
2023-04-24T17:55:11.006Z,100.00
2023-04-24T17:57:39.188Z,100.00
2023-04-24T18:00:08.993Z,100.00
2023-04-24T18:02:39.879Z,100.00
2023-04-24T18:05:08.629Z,100.00
2023-04-24T18:07:39.559Z,100.00
2023-04-24T18:10:10.575Z,100.00
2023-04-24T18:12:38.665Z,100.00
2023-04-24T18:17:41.222Z,100.00
2023-04-24T18:20:11.454Z,100.00
2023-04-24T18:22:39.668Z,100.00
2023-04-24T18:25:10.005Z,100.00
2023-04-24T18:27:38.050Z,100.00
2023-04-24T18:30:07.353Z,100.00
2023-04-24T18:32:35.863Z,100.00
2023-04-24T18:35:04.409Z,100.00
2023-04-24T18:37:33.678Z,100.00
2023-04-24T18:40:01.944Z,100.00
2023-04-24T18:42:31.376Z,100.00
2023-04-24T18:45:01.809Z,100.00
2023-04-24T18:47:30.139Z,100.00
2023-04-24T18:49:58.213Z,100.00
2023-04-24T18:52:26.374Z,100.00
2023-04-24T18:54:55.858Z,100.00
2023-04-24T18:57:23.909Z,100.00
2023-04-24T18:59:53.490Z,100.00
2023-04-24T19:02:21.764Z,100.00
2023-04-24T19:04:50.618Z,100.00
2023-04-24T19:07:20.884Z,100.00
2023-04-24T19:09:51.367Z,100.00
2023-04-24T19:12:22.274Z,100.00
2023-04-24T19:14:51.921Z,100.00
2023-04-24T19:17:24.711Z,100.00
2023-04-24T19:19:53.309Z,100.00
2023-04-24T19:22:21.604Z,100.00
2023-04-24T19:24:52.134Z,100.00
2023-04-24T19:27:21.070Z,100.00
2023-04-24T19:29:52.190Z,100.00
2023-04-24T19:32:22.479Z,100.00
2023-04-24T19:34:54.338Z,100.00
2023-04-24T19:37:22.477Z,100.00
2023-04-24T19:39:50.731Z,100.00
2023-04-24T19:42:25.536Z,100.00
2023-04-24T19:45:01.318Z,100.00
2023-04-24T19:47:30.894Z,100.00
2023-04-24T19:50:00.262Z,100.00
2023-04-24T19:52:28.927Z,100.00
2023-04-24T19:54:57.190Z,100.00
2023-04-24T19:57:25.645Z,100.00
2023-04-24T19:59:53.842Z,100.00
2023-04-24T20:02:21.899Z,100.00
2023-04-24T20:04:51.445Z,100.00
2023-04-24T20:07:22.222Z,100.00
2023-04-24T20:09:50.270Z,100.00
2023-04-24T20:12:18.413Z,100.00
2023-04-24T20:14:47.859Z,100.00
2023-04-24T20:17:15.915Z,100.00
2023-04-24T20:19:44.374Z,100.00
2023-04-24T20:22:14.089Z,100.00
2023-04-24T20:24:42.249Z,100.00
2023-04-24T20:27:10.444Z,100.00
2023-04-24T20:29:38.655Z,100.00
2023-04-24T20:32:07.535Z,100.00
2023-04-24T20:34:35.734Z,100.00
2023-04-24T20:37:04.079Z,100.00
2023-04-24T20:39:33.501Z,100.00
2023-04-24T20:42:01.539Z,100.00
2023-04-24T20:44:29.578Z,100.00
2023-04-24T20:46:57.614Z,100.00
2023-04-24T20:49:25.828Z,100.00
2023-04-24T20:51:55.418Z,100.00
2023-04-24T20:54:23.357Z,100.00
2023-04-24T20:56:52.808Z,100.00
2023-04-24T20:59:20.744Z,100.00
2023-04-24T21:01:50.662Z,100.00
2023-04-24T21:04:18.866Z,100.00
2023-04-24T21:06:47.828Z,100.00
2023-04-24T21:09:16.350Z,100.00
2023-04-24T21:11:44.411Z,100.00
2023-04-24T21:14:13.860Z,100.00
2023-04-24T21:16:41.950Z,100.00
2023-04-24T21:19:10.002Z,100.00
2023-04-24T21:21:38.087Z,100.00
2023-04-24T21:24:06.596Z,100.00
2023-04-24T21:26:34.976Z,100.00
2023-04-24T21:29:03.185Z,100.00
2023-04-24T21:31:32.655Z,100.00
2023-04-24T21:34:00.974Z,100.00
2023-04-24T21:36:30.110Z,100.00
2023-04-24T21:39:00.238Z,100.00
2023-04-24T21:41:28.343Z,100.00
2023-04-24T21:43:56.943Z,100.00
2023-04-24T21:46:25.230Z,100.00
2023-04-24T21:48:54.643Z,100.00
2023-04-24T21:51:22.762Z,100.00
2023-04-24T21:53:50.932Z,100.00
2023-04-24T21:56:19.191Z,100.00
2023-04-24T21:58:48.482Z,100.00
2023-04-24T22:01:16.635Z,100.00
2023-04-24T22:03:44.756Z,100.00
2023-04-24T22:06:31.542Z,100.00
2023-04-24T22:08:59.553Z,100.00
2023-04-24T22:11:27.951Z,100.00
2023-04-24T22:13:56.179Z,100.00
2023-04-24T22:16:25.251Z,100.00
2023-04-24T22:18:55.375Z,100.00
2023-04-24T22:21:26.121Z,100.00
2023-04-24T22:23:54.286Z,100.00
2023-04-24T22:26:22.422Z,100.00
2023-04-24T22:28:50.527Z,100.00
2023-04-24T22:31:18.820Z,100.00
2023-04-24T22:33:47.866Z,100.00
2023-04-24T22:36:16.398Z,100.00
2023-04-24T22:38:45.861Z,100.00
2023-04-24T22:41:14.153Z,100.00
2023-04-24T22:43:42.164Z,100.00
2023-04-24T22:46:10.649Z,100.00
2023-04-24T22:48:38.962Z,100.00
2023-04-24T22:51:07.248Z,100.00
2023-04-24T22:53:36.297Z,100.00
2023-04-24T22:56:07.712Z,100.00
2023-04-24T22:58:35.787Z,100.00
2023-04-24T23:01:04.262Z,100.00
2023-04-24T23:03:33.480Z,100.00
2023-04-24T23:06:01.646Z,100.00
2023-04-24T23:08:30.672Z,100.00
2023-04-24T23:10:58.734Z,100.00
2023-04-24T23:13:28.282Z,100.00
2023-04-24T23:15:56.280Z,100.00
2023-04-24T23:18:24.377Z,100.00
2023-04-24T23:20:53.025Z,100.00
2023-04-24T23:23:21.001Z,100.00
2023-04-24T23:25:49.029Z,100.00
2023-04-24T23:28:17.037Z,100.00
2023-04-24T23:30:46.462Z,100.00
2023-04-24T23:33:15.051Z,100.00
2023-04-24T23:35:43.166Z,100.00
2023-04-24T23:38:11.210Z,100.00
2023-04-24T23:40:39.120Z,100.00
2023-04-24T23:43:08.439Z,100.00
2023-04-24T23:45:37.183Z,100.00
2023-04-24T23:48:06.880Z,100.00
2023-04-24T23:50:34.891Z,100.00
2023-04-24T23:53:03.073Z,100.00
2023-04-24T23:55:31.124Z,100.00
2023-04-24T23:57:59.146Z,100.00
